Time;durP1;ratioP1;P1;durP2;ratioP2;P2;SDS_P1;SDS_P2;PMS_P1;PMS_P2;Temp;Humidity;BMP_temperature;BMP_pressure;BME280_temperature;BME280_humidity;BME280_pressure;Samples;Min_cycle;Max_cycle;Signal;HPM_P1;HPM_P2
2022/05/09 00:00:21;;;;;;;18.42;9.10;;;;;;;19.48;56.19;100617.81;5115819;28;20100;-72
2022/05/09 00:02:49;;;;;;;22.20;9.13;;;;;;;19.43;55.98;100598.19;5114834;28;20071;-71
2022/05/09 00:05:19;;;;;;;20.80;7.97;;;;;;;19.35;55.86;100579.19;5117083;27;20099;-72
2022/05/09 00:07:46;;;;;;;23.77;9.20;;;;;;;19.53;55.66;100620.47;5120273;28;20048;-72
2022/05/09 00:10:16;;;;;;;19.55;9.15;;;;;;;19.63;55.64;100619.28;5149114;27;20145;-73
2022/05/09 00:12:43;;;;;;;22.52;10.30;;;;;;;19.66;55.65;100618.63;5119973;28;20607;-72
2022/05/09 00:15:12;;;;;;;22.67;9.23;;;;;;;19.72;55.36;100624.91;5112886;28;20051;-70
2022/05/09 00:17:39;;;;;;;16.48;7.95;;;;;;;19.59;55.23;100616.28;5115919;28;20043;-70
2022/05/09 00:20:07;;;;;;;17.23;8.38;;;;;;;19.68;54.92;100623.94;5110494;28;20159;-71
2022/05/09 00:22:53;;;;;;;16.00;9.35;;;;;;;19.59;54.97;100629.63;5117136;28;20044;-70
2022/05/09 00:25:23;;;;;;;15.68;8.93;;;;;;;19.58;54.80;100614.59;5114572;28;20071;-72
2022/05/09 00:27:50;;;;;;;23.50;9.23;;;;;;;19.39;55.28;100602.88;5114798;28;20078;-73
2022/05/09 00:30:18;;;;;;;17.23;8.73;;;;;;;19.54;55.10;100622.13;5118121;28;20111;-72
2022/05/09 00:32:45;;;;;;;17.73;8.98;;;;;;;19.37;55.30;100610.84;5113444;28;20044;-71
2022/05/09 00:35:13;;;;;;;24.35;9.45;;;;;;;19.45;55.69;100632.63;5112512;28;20082;-71
2022/05/09 00:37:41;;;;;;;22.13;10.57;;;;;;;19.32;55.57;100613.88;5114815;28;20135;-71
2022/05/09 00:40:12;;;;;;;23.65;10.73;;;;;;;19.27;55.61;100611.22;5112270;28;20101;-71
2022/05/09 00:42:53;;;;;;;16.02;8.65;;;;;;;19.29;55.72;100626.72;5109291;28;20585;-71
2022/05/09 00:45:23;;;;;;;21.20;9.13;;;;;;;19.29;56.03;100637.22;5107353;28;20135;-71
2022/05/09 00:47:50;;;;;;;19.58;10.02;;;;;;;19.25;55.87;100636.19;5109909;28;20482;-71
2022/05/09 00:50:25;;;;;;;23.00;10.10;;;;;;;19.21;55.79;100636.03;5110560;28;20135;-71
2022/05/09 00:53:01;;;;;;;16.23;9.50;;;;;;;19.20;55.84;100639.22;5098641;28;20127;-70
2022/05/09 00:55:35;;;;;;;18.15;9.90;;;;;;;19.17;56.00;100638.72;5103806;28;20559;-70
2022/05/09 00:58:14;;;;;;;24.70;10.40;;;;;;;19.05;55.96;100632.94;5106802;28;20083;-71
2022/05/09 01:00:45;;;;;;;19.10;9.98;;;;;;;18.95;56.33;100610.63;5111003;28;20044;-71
2022/05/09 01:03:18;;;;;;;23.02;10.27;;;;;;;18.87;56.45;100608.63;5116337;27;20078;-71
2022/05/09 01:05:50;;;;;;;23.17;11.02;;;;;;;18.93;56.14;100627.13;5114128;27;20040;-70
2022/05/09 01:08:19;;;;;;;25.92;9.77;;;;;;;18.84;56.30;100609.34;5117046;28;20039;-70
2022/05/09 01:10:47;;;;;;;21.38;10.70;;;;;;;19.02;56.57;100636.44;5118080;27;20075;-71
2022/05/09 01:13:16;;;;;;;26.20;11.35;;;;;;;18.95;56.59;100627.63;5111769;28;20075;-71
2022/05/09 01:15:47;;;;;;;25.20;11.35;;;;;;;18.95;56.75;100627.63;5111703;27;20079;-71
2022/05/09 01:18:16;;;;;;;21.48;10.50;;;;;;;18.94;57.08;100623.13;5116703;28;20047;-70
2022/05/09 01:20:44;;;;;;;23.27;11.38;;;;;;;18.95;56.88;100627.63;5115255;28;20493;-69
2022/05/09 01:23:11;;;;;;;21.33;11.25;;;;;;;18.86;57.04;100609.81;5110466;27;20122;-71
2022/05/09 01:25:39;;;;;;;20.85;10.88;;;;;;;18.93;57.39;100619.44;5111200;28;20118;-71
2022/05/09 01:28:06;;;;;;;26.65;11.30;;;;;;;18.93;57.17;100624.28;5112790;27;20378;-70
2022/05/09 01:30:50;;;;;;;23.75;11.43;;;;;;;18.91;57.09;100623.81;5114750;28;20135;-72
2022/05/09 01:33:22;;;;;;;25.63;11.35;;;;;;;18.93;57.38;100618.63;5111590;28;20047;-71
2022/05/09 01:35:57;;;;;;;23.83;10.20;;;;;;;18.87;57.46;100602.97;5106787;27;20051;-70
2022/05/09 01:38:30;;;;;;;20.02;10.68;;;;;;;18.81;57.67;100598.69;5101666;28;20139;-70
2022/05/09 01:40:57;;;;;;;20.55;11.45;;;;;;;18.83;57.58;100607.66;5112652;28;20083;-70
2022/05/09 01:43:35;;;;;;;30.95;11.23;;;;;;;18.77;57.80;100583.53;5113407;27;20127;-70
2022/05/09 01:46:05;;;;;;;21.17;11.93;;;;;;;18.87;58.14;100602.97;5109717;27;20157;-70
2022/05/09 01:51:17;;;;;;;20.33;10.40;;;;;;;18.71;57.54;100588.50;5112580;28;19954;-69
2022/05/09 01:53:49;;;;;;;18.20;10.15;;;;;;;18.78;57.95;100602.19;5110425;28;20126;-69
2022/05/09 01:56:25;;;;;;;30.65;10.68;;;;;;;18.68;58.11;100583.53;5107665;28;20086;-69
2022/05/09 01:58:53;;;;;;;18.65;8.70;;;;;;;18.53;58.29;100582.03;5103760;28;20073;-69
2022/05/09 02:01:21;;;;;;;17.73;8.93;;;;;;;18.51;58.38;100581.53;5111424;28;20059;-70
2022/05/09 02:03:49;;;;;;;14.38;8.45;;;;;;;18.55;58.22;100595.84;5110761;27;20067;-70
2022/05/09 02:06:18;;;;;;;16.50;7.45;;;;;;;18.41;58.09;100593.19;5112333;28;20062;-70
2022/05/09 02:08:46;;;;;;;16.17;7.22;;;;;;;18.32;58.26;100587.50;5111492;27;20545;-71
2022/05/09 02:11:13;;;;;;;15.25;8.70;;;;;;;18.37;58.20;100607.16;5114507;28;20117;-70
2022/05/09 02:13:41;;;;;;;16.10;9.27;;;;;;;18.39;58.12;100598.31;5112397;28;20079;-70
2022/05/09 02:16:09;;;;;;;15.07;9.90;;;;;;;18.40;58.13;100602.84;5111622;27;20122;-70
2022/05/09 02:18:37;;;;;;;17.52;8.48;;;;;;;18.23;58.05;100578.22;5112615;28;20055;-70
2022/05/09 02:21:05;;;;;;;26.80;9.52;;;;;;;18.31;57.90;100585.84;5113395;27;20126;-69
2022/05/09 02:23:33;;;;;;;18.13;8.60;;;;;;;18.48;57.93;100607.66;5113070;27;20075;-69
2022/05/09 02:26:00;;;;;;;23.95;9.88;;;;;;;18.50;57.59;100611.00;5114107;27;20078;-69
2022/05/09 02:28:28;;;;;;;12.77;8.70;;;;;;;18.51;58.09;100607.00;5114019;27;20075;-68
2022/05/09 02:30:55;;;;;;;21.65;8.85;;;;;;;18.49;57.66;100600.81;5110561;27;20082;-69
2022/05/09 02:33:22;;;;;;;21.90;8.50;;;;;;;18.48;57.96;100600.00;5110720;28;20086;-69
2022/05/09 02:35:49;;;;;;;17.50;9.13;;;;;;;18.50;58.10;100598.84;5107592;28;20135;-70
2022/05/09 02:38:17;;;;;;;17.45;9.02;;;;;;;18.34;57.87;100575.88;5112714;27;20457;-70
2022/05/09 02:40:43;;;;;;;16.42;8.57;;;;;;;18.34;57.83;100584.38;5114644;27;20547;-69
2022/05/09 02:43:10;;;;;;;15.82;8.27;;;;;;;18.38;58.18;100586.19;5108247;27;20466;-69
2022/05/09 02:45:38;;;;;;;15.45;8.40;;;;;;;18.44;58.21;100598.19;5109415;27;20147;-69
2022/05/09 02:48:06;;;;;;;18.92;8.75;;;;;;;18.53;58.22;100609.47;5111848;28;20076;-69
2022/05/09 02:50:33;;;;;;;18.67;9.15;;;;;;;18.42;57.75;100597.66;5111639;27;20043;-69
2022/05/09 02:53:00;;;;;;;19.50;8.55;;;;;;;18.57;57.90;100621.81;5111941;27;20158;-70
2022/05/09 02:55:27;;;;;;;16.90;8.52;;;;;;;18.56;57.69;100620.94;5112603;28;20114;-70
2022/05/09 02:57:54;;;;;;;18.48;9.23;;;;;;;18.54;58.04;100628.13;5110759;28;20135;-70
2022/05/09 03:00:24;;;;;;;17.63;9.02;;;;;;;18.26;57.52;100582.38;5112205;28;20055;-69
2022/05/09 03:05:40;;;;;;;26.15;8.77;;;;;;;18.42;57.32;100628.75;5094581;28;20101;-68
2022/05/09 03:08:08;;;;;;;19.85;9.15;;;;;;;18.42;57.82;100620.28;5115432;27;20127;-68
2022/05/09 03:10:37;;;;;;;18.83;9.25;;;;;;;18.07;57.53;100569.38;5107547;28;20075;-69
2022/05/09 03:13:06;;;;;;;27.00;11.80;;;;;;;18.21;57.86;100589.84;5111149;27;20409;-68
2022/05/09 03:15:36;;;;;;;24.65;10.88;;;;;;;18.26;57.74;100597.34;5109350;28;20071;-68
2022/05/09 03:18:03;;;;;;;21.30;10.10;;;;;;;18.29;57.85;100593.84;5109665;28;20075;-69
2022/05/09 03:20:30;;;;;;;29.80;10.50;;;;;;;18.23;58.02;100593.19;5111473;27;20166;-69
2022/05/09 03:22:57;;;;;;;19.92;10.27;;;;;;;18.33;58.31;100610.97;5110857;28;20083;-69
2022/05/09 03:25:24;;;;;;;26.88;10.60;;;;;;;18.36;58.30;100604.63;5109960;28;20460;-70
2022/05/09 03:27:52;;;;;;;18.58;10.27;;;;;;;18.34;58.58;100615.47;5110196;28;20130;-69
2022/05/09 03:30:19;;;;;;;17.05;9.35;;;;;;;18.29;58.55;100604.31;5108066;28;20360;-69
2022/05/09 03:32:47;;;;;;;27.02;12.05;;;;;;;18.24;58.92;100608.97;5111467;27;20079;-68
2022/05/09 03:35:15;;;;;;;39.70;15.75;;;;;;;18.29;59.05;100607.13;5110620;28;20043;-69
2022/05/09 03:37:42;;;;;;;29.38;13.57;;;;;;;18.31;59.07;100607.66;5110975;27;20087;-70
2022/05/09 03:40:09;;;;;;;25.70;11.60;;;;;;;18.25;58.90;100598.47;5112413;27;20104;-71
2022/05/09 03:42:36;;;;;;;22.13;10.05;;;;;;;18.00;59.45;100583.16;5111307;27;20078;-71
2022/05/09 03:45:04;;;;;;;21.08;11.65;;;;;;;17.91;59.61;100576.66;5141018;27;20075;-70
2022/05/09 03:47:31;;;;;;;19.15;10.73;;;;;;;17.86;59.89;100599.44;5110599;27;20078;-70
2022/05/09 03:49:58;;;;;;;22.63;12.35;;;;;;;17.62;59.83;100558.28;5111583;27;20082;-69
2022/05/09 03:52:25;;;;;;;21.15;10.70;;;;;;;17.75;59.80;100584.75;5113427;27;20051;-71
2022/05/09 03:54:52;;;;;;;26.27;10.77;;;;;;;17.73;59.68;100584.22;5109498;28;20112;-70
2022/05/09 03:57:19;;;;;;;22.50;10.98;;;;;;;17.69;59.83;100580.41;5112220;28;20089;-71
2022/05/09 03:59:46;;;;;;;25.05;12.43;;;;;;;17.74;59.91;100583.94;5104025;27;20143;-70
2022/05/09 04:02:12;;;;;;;24.88;10.70;;;;;;;17.65;59.92;100570.94;5107498;27;20043;-70
2022/05/09 04:04:39;;;;;;;23.77;11.50;;;;;;;17.67;59.70;100575.06;5109655;28;20083;-69
2022/05/09 04:07:06;;;;;;;27.75;12.40;;;;;;;17.66;59.98;100570.59;5111148;28;20126;-69
2022/05/09 04:09:34;;;;;;;23.20;13.07;;;;;;;17.79;59.65;100587.78;5101475;28;20071;-70
2022/05/09 04:12:01;;;;;;;21.35;11.00;;;;;;;17.77;59.75;100586.09;5111101;28;20093;-69
2022/05/09 04:17:19;;;;;;;22.98;11.00;;;;;;;17.69;59.46;100592.53;5107879;28;20051;-69
2022/05/09 04:19:47;;;;;;;20.63;10.95;;;;;;;17.57;59.55;100588.66;5109336;28;20126;-69
2022/05/09 04:22:15;;;;;;;18.75;9.55;;;;;;;17.55;59.78;100591.81;5111485;28;20087;-69
2022/05/09 04:24:43;;;;;;;20.05;9.30;;;;;;;17.51;59.45;100593.66;5110349;28;20047;-72
2022/05/09 04:27:10;;;;;;;20.30;10.63;;;;;;;17.37;58.97;100551.41;5106543;28;20050;-71
2022/05/09 04:29:38;;;;;;;21.13;9.13;;;;;;;17.45;59.16;100580.81;5106676;28;20138;-71
2022/05/09 04:32:05;;;;;;;21.08;10.55;;;;;;;17.23;59.21;100542.19;5105111;28;20138;-71
2022/05/09 04:34:34;;;;;;;22.00;10.70;;;;;;;17.34;59.20;100574.66;5110318;28;20091;-69
2022/05/09 04:37:00;;;;;;;21.42;10.85;;;;;;;17.35;59.46;100567.84;5112351;28;20067;-70
2022/05/09 04:39:27;;;;;;;20.58;10.27;;;;;;;17.53;59.10;100585.66;5107870;28;20575;-69
2022/05/09 04:41:54;;;;;;;23.55;11.35;;;;;;;17.49;59.61;100567.72;5110960;28;20122;-71
2022/05/09 04:44:22;;;;;;;24.35;11.70;;;;;;;17.37;59.34;100548.59;5111837;28;20135;-70
2022/05/09 04:46:48;;;;;;;25.05;12.30;;;;;;;17.50;59.54;100578.69;5109039;28;20127;-70
2022/05/09 04:49:15;;;;;;;22.05;11.18;;;;;;;17.51;59.97;100585.19;5106694;28;20047;-70
2022/05/09 04:51:42;;;;;;;25.52;11.30;;;;;;;17.46;59.88;100582.47;5107599;27;20122;-70
2022/05/09 04:54:09;;;;;;;20.60;10.98;;;;;;;17.57;59.94;100599.97;5114214;27;20126;-71
2022/05/09 04:56:36;;;;;;;20.65;10.10;;;;;;;17.50;59.93;100606.06;5112005;27;20051;-70
2022/05/09 04:59:03;;;;;;;23.45;9.85;;;;;;;17.48;59.40;100614.88;5112850;28;20048;-70
2022/05/09 05:01:30;;;;;;;21.10;11.35;;;;;;;17.46;59.49;100617.19;5106909;28;20090;-70
2022/05/09 05:03:56;;;;;;;18.42;10.13;;;;;;;17.10;59.61;100563.75;5114810;28;20051;-69
2022/05/09 05:06:23;;;;;;;24.73;10.60;;;;;;;17.29;59.68;100600.19;5110723;28;20146;-70
2022/05/09 05:08:50;;;;;;;21.55;10.20;;;;;;;17.40;59.37;100617.66;5113603;28;20126;-69
2022/05/09 05:11:17;;;;;;;18.90;9.90;;;;;;;17.39;59.21;100611.19;5108903;28;20075;-69
2022/05/09 05:13:44;;;;;;;23.67;10.98;;;;;;;17.34;59.37;100602.03;5113641;27;20127;-70
2022/05/09 05:16:10;;;;;;;18.95;11.13;;;;;;;17.47;59.45;100629.31;5114402;28;20079;-71
2022/05/09 05:18:37;;;;;;;20.58;10.48;;;;;;;17.27;59.54;100594.88;5113650;27;20111;-70
2022/05/09 05:21:12;;;;;;;23.20;11.20;;;;;;;17.33;59.57;100600.34;5113408;27;20135;-71
2022/05/09 05:23:39;;;;;;;28.10;10.65;;;;;;;17.43;59.84;100608.53;5110825;28;20086;-71
2022/05/09 05:26:07;;;;;;;21.13;11.65;;;;;;;17.50;59.83;100628.66;5126241;27;20122;-69
2022/05/09 05:28:34;;;;;;;24.00;11.13;;;;;;;17.33;59.88;100600.34;5117464;28;20048;-69
2022/05/09 05:31:15;;;;;;;20.63;10.27;;;;;;;17.46;59.65;100627.66;5112870;27;20473;-71
2022/05/09 05:33:44;;;;;;;20.77;9.95;;;;;;;17.42;59.75;100615.34;5106874;27;20043;-71
2022/05/09 05:36:12;;;;;;;19.67;9.88;;;;;;;17.37;59.82;100612.69;5105620;27;20054;-69
2022/05/09 05:38:39;;;;;;;20.15;9.40;;;;;;;17.25;60.05;100616.94;5103507;28;20125;-70
2022/05/09 05:41:06;;;;;;;23.52;10.35;;;;;;;17.13;60.07;100619.53;5104099;27;20130;-71
2022/05/09 05:43:33;;;;;;;21.88;8.90;;;;;;;16.96;60.70;100608.16;5114376;28;20079;-80
2022/05/09 05:46:00;;;;;;;19.60;10.00;;;;;;;16.90;60.64;100615.91;5112768;27;20075;-76
2022/05/09 05:48:27;;;;;;;17.65;8.73;;;;;;;16.97;60.60;100630.38;5116320;28;20074;-77
2022/05/09 05:50:54;;;;;;;18.02;8.55;;;;;;;17.13;60.55;100644.06;5112162;27;20050;-70
2022/05/09 05:53:20;;;;;;;13.93;7.50;;;;;;;17.01;60.32;100613.63;5119672;27;20071;-70
2022/05/09 05:55:47;;;;;;;12.77;7.20;;;;;;;16.98;59.98;100603.81;5112979;28;20135;-68
2022/05/09 05:58:14;;;;;;;14.68;8.23;;;;;;;17.23;60.21;100636.19;5112558;28;20137;-69
2022/05/09 06:00:41;;;;;;;15.95;7.90;;;;;;;17.25;59.69;100618.91;5100153;27;20303;-69
2022/05/09 06:03:08;;;;;;;14.70;7.90;;;;;;;17.48;59.11;100633.81;5112265;28;20090;-69
2022/05/09 06:05:35;;;;;;;14.30;6.90;;;;;;;17.78;58.63;100618.03;5113340;28;20117;-69
2022/05/09 06:08:03;;;;;;;16.00;7.57;;;;;;;17.95;58.38;100640.69;5110623;27;20139;-69
2022/05/09 06:10:30;;;;;;;11.60;7.00;;;;;;;18.02;58.02;100634.53;5107201;28;20135;-69
2022/05/09 06:12:57;;;;;;;10.32;6.63;;;;;;;18.12;57.88;100639.88;5107209;27;20039;-69
2022/05/09 06:15:32;;;;;;;13.50;7.50;;;;;;;18.20;57.41;100618.44;5112566;28;20144;-69
2022/05/09 06:18:01;;;;;;;11.63;6.70;;;;;;;18.61;57.29;100646.25;5104433;28;20075;-69
2022/05/09 06:20:33;;;;;;;13.15;6.68;;;;;;;18.80;57.06;100656.41;5111216;28;20040;-69
2022/05/09 06:23:01;;;;;;;10.75;6.93;;;;;;;19.04;56.35;100662.41;5108440;28;20130;-69
2022/05/09 06:25:30;;;;;;;13.02;7.50;;;;;;;19.32;56.01;100664.84;5110367;27;20137;-73
2022/05/09 06:28:01;;;;;;;12.23;7.50;;;;;;;19.25;55.85;100647.53;5106041;28;20743;-71
2022/05/09 06:30:28;;;;;;;14.90;7.18;;;;;;;19.63;55.78;100676.78;5100876;28;20136;-71
2022/05/09 06:32:56;;;;;;;11.77;6.93;;;;;;;19.83;55.11;100678.03;5098165;28;20083;-70
2022/05/09 06:35:26;;;;;;;15.98;8.05;;;;;;;19.76;54.77;100657.03;5114491;28;20146;-70
2022/05/09 06:37:56;;;;;;;11.85;7.22;;;;;;;20.05;54.40;100676.91;5109839;28;20127;-70
2022/05/09 06:40:23;;;;;;;15.25;8.88;;;;;;;20.13;54.11;100661.84;5109147;28;20452;-71
2022/05/09 06:42:52;;;;;;;14.43;7.72;;;;;;;20.35;53.90;100665.56;5101259;28;20039;-71
2022/05/09 06:45:20;;;;;;;13.68;8.43;;;;;;;20.52;53.67;100656.97;5108679;28;20522;-70
2022/05/09 06:47:49;;;;;;;14.82;7.90;;;;;;;20.76;52.94;100673.31;5107715;28;20139;-70
2022/05/09 06:50:24;;;;;;;15.05;7.97;;;;;;;20.70;53.02;100645.47;5138340;27;20091;-71
2022/05/09 06:52:51;;;;;;;17.58;8.82;;;;;;;20.80;52.92;100654.41;5106726;27;20130;-71
2022/05/09 06:55:38;;;;;;;19.65;9.05;;;;;;;21.15;52.79;100673.94;5108882;28;20052;-70
2022/05/09 06:58:12;;;;;;;14.88;7.63;;;;;;;21.35;52.40;100677.94;5108639;28;20434;-71
2022/05/09 07:00:39;;;;;;;17.40;8.77;;;;;;;21.45;52.15;100660.44;5112755;28;20079;-71
2022/05/09 07:03:05;;;;;;;12.40;8.27;;;;;;;21.59;52.01;100662.16;5097141;28;20126;-71
2022/05/09 07:05:33;;;;;;;14.30;9.23;;;;;;;21.96;51.42;100680.91;5093144;28;20056;-70
2022/05/09 07:07:59;;;;;;;12.70;7.78;;;;;;;22.09;51.33;100678.06;5094408;28;20131;-71
2022/05/09 07:10:28;;;;;;;12.00;7.95;;;;;;;22.23;51.25;100681.41;5114185;28;20082;-69
2022/05/09 07:12:56;;;;;;;16.70;8.32;;;;;;;22.42;50.58;100675.09;5113991;28;20048;-70
2022/05/09 07:15:27;;;;;;;16.40;8.30;;;;;;;22.65;50.07;100678.25;5104763;28;20047;-70
2022/05/09 07:17:55;;;;;;;19.85;8.45;;;;;;;22.88;49.75;100679.38;5112739;28;20086;-69
2022/05/09 07:20:25;;;;;;;18.27;10.13;;;;;;;23.18;49.04;100676.22;5114148;28;20460;-70
2022/05/09 07:22:55;;;;;;;16.55;8.25;;;;;;;23.62;48.64;100684.72;5114461;28;20086;-69
2022/05/09 07:25:24;;;;;;;16.75;8.77;;;;;;;23.95;48.24;100695.84;5100328;28;20560;-69
2022/05/09 07:27:51;;;;;;;20.57;8.40;;;;;;;24.30;47.80;100692.22;5095413;28;20080;-68
2022/05/09 07:30:20;;;;;;;20.45;7.63;;;;;;;24.77;46.88;100697.00;5111325;28;20295;-69
2022/05/09 07:32:47;;;;;;;13.20;7.57;;;;;;;25.19;46.34;100696.31;5114029;28;20059;-70
2022/05/09 07:35:16;;;;;;;13.93;7.78;;;;;;;25.31;45.54;100692.47;5111261;28;20104;-69
2022/05/09 07:37:44;;;;;;;13.65;8.25;;;;;;;25.31;45.16;100681.03;5106213;28;20162;-69
2022/05/09 07:40:12;;;;;;;13.88;7.72;;;;;;;25.81;44.91;100702.03;5111865;28;20089;-69
2022/05/09 07:42:41;;;;;;;13.38;8.20;;;;;;;25.96;44.46;100667.56;5109256;27;20911;-68
2022/05/09 07:45:11;;;;;;;16.58;8.73;;;;;;;26.47;43.88;100706.47;5109292;28;20128;-68
2022/05/09 07:47:39;;;;;;;13.02;7.88;;;;;;;26.49;43.66;100712.63;5113169;28;20135;-69
2022/05/09 07:50:08;;;;;;;15.10;8.60;;;;;;;26.55;43.68;100713.13;5113027;28;20095;-67
2022/05/09 07:52:35;;;;;;;16.35;9.25;;;;;;;26.70;43.30;100721.56;5112265;28;20470;-68
2022/05/09 07:55:03;;;;;;;16.17;9.48;;;;;;;26.78;42.86;100701.59;5111923;27;20040;-68
2022/05/09 07:57:31;;;;;;;15.90;8.88;;;;;;;26.77;42.95;100706.50;5105558;27;20047;-69
2022/05/09 07:59:59;;;;;;;19.45;9.32;;;;;;;26.89;42.75;100720.59;5110438;28;20138;-69
2022/05/09 08:02:27;;;;;;;16.88;10.23;;;;;;;26.96;42.43;100710.44;5101848;28;20047;-67
2022/05/09 08:04:54;;;;;;;17.55;9.85;;;;;;;27.05;41.91;100694.59;5107596;28;20451;-67
2022/05/09 08:07:21;;;;;;;15.25;10.07;;;;;;;27.25;41.52;100720.25;5110576;28;20513;-69
2022/05/09 08:09:48;;;;;;;15.95;8.80;;;;;;;27.10;41.55;100725.78;5111049;28;20516;-68
2022/05/09 08:12:15;;;;;;;16.95;9.65;;;;;;;26.99;41.22;100706.78;5109610;27;20043;-68
2022/05/09 08:14:43;;;;;;;18.58;10.43;;;;;;;26.99;41.23;100701.88;5110908;28;20077;-68
2022/05/09 08:17:11;;;;;;;21.60;10.38;;;;;;;27.23;40.81;100711.22;5110453;28;20075;-68
2022/05/09 08:19:39;;;;;;;19.70;10.25;;;;;;;27.46;40.65;100711.94;5112246;27;20127;-69
2022/05/09 08:22:07;;;;;;;15.30;9.88;;;;;;;27.46;40.65;100668.91;5110896;28;20432;-68
2022/05/09 08:24:42;;;;;;;18.52;11.05;;;;;;;27.56;40.56;100691.16;5103693;28;20044;-67
2022/05/09 08:27:08;;;;;;;20.63;12.73;;;;;;;28.02;40.57;100727.28;5106052;28;20505;-68
2022/05/09 08:29:35;;;;;;;25.45;13.18;;;;;;;28.33;40.13;100728.78;5105953;28;20128;-68
2022/05/09 08:32:03;;;;;;;25.73;14.05;;;;;;;28.49;39.75;100709.25;5106084;28;20071;-68
2022/05/09 08:34:30;;;;;;;32.10;13.60;;;;;;;28.90;39.67;100737.84;5109914;28;20054;-69
2022/05/09 08:36:56;;;;;;;28.65;13.90;;;;;;;29.17;39.17;100731.88;5108812;28;20061;-69
2022/05/09 08:39:26;;;;;;;26.30;13.52;;;;;;;29.19;39.03;100717.88;5112106;28;20537;-69
2022/05/09 08:42:05;;;;;;;27.98;15.80;;;;;;;29.39;38.94;100736.47;5110265;28;20047;-69
2022/05/09 08:44:43;;;;;;;28.52;14.00;;;;;;;29.69;38.70;100735.38;5112321;28;20055;-69
2022/05/09 08:47:19;;;;;;;29.98;14.48;;;;;;;29.60;38.90;100738.63;5102035;28;20048;-68
2022/05/09 08:50:09;;;;;;;27.80;14.35;;;;;;;29.19;39.20;100738.00;5112811;28;20555;-69
2022/05/09 08:52:47;;;;;;;31.70;14.98;;;;;;;29.10;39.62;100757.72;5110298;28;20490;-68
2022/05/09 08:55:23;;;;;;;24.70;13.32;;;;;;;29.02;39.27;100731.78;5105872;28;20133;-68
2022/05/09 08:58:03;;;;;;;27.52;14.18;;;;;;;29.40;39.00;100735.25;5108325;28;20069;-68
2022/05/09 09:00:31;;;;;;;22.73;13.25;;;;;;;29.88;38.31;100742.78;5109079;28;20085;-68
2022/05/09 09:03:38;;;;;;;27.75;12.43;;;;;;;30.03;37.97;100750.25;5107931;28;20047;-68
2022/05/09 09:06:09;;;;;;;20.98;11.65;;;;;;;30.31;37.97;100755.22;5106511;28;20052;-69
2022/05/09 09:08:55;;;;;;;23.10;11.98;;;;;;;30.56;37.27;100755.19;5109625;28;20067;-69
2022/05/09 09:11:39;;;;;;;23.40;12.80;;;;;;;30.64;36.92;100733.81;5105924;28;20383;-69
2022/05/09 09:14:20;;;;;;;22.20;11.50;;;;;;;30.66;36.32;100716.09;5108945;28;20082;-67
2022/05/09 09:17:01;;;;;;;25.38;12.95;;;;;;;30.90;36.17;100741.19;5102420;28;20135;-69
2022/05/09 09:19:46;;;;;;;25.80;12.55;;;;;;;31.03;36.51;100744.44;5111127;28;22128;-68
2022/05/09 09:22:20;;;;;;;22.45;12.48;;;;;;;31.28;36.32;100755.91;5108804;28;20101;-69
2022/05/09 09:25:06;;;;;;;28.00;13.15;;;;;;;31.54;36.31;100751.69;5112736;27;20079;-69
2022/05/09 09:28:12;;;;;;;26.67;12.75;;;;;;;31.77;35.64;100745.41;5113447;28;20058;-68
2022/05/09 09:30:41;;;;;;;20.67;11.95;;;;;;;31.97;35.14;100747.78;5111642;28;20106;-68
2022/05/09 09:33:11;;;;;;;19.85;11.13;;;;;;;32.20;34.96;100747.19;5109937;27;20543;-69
2022/05/09 09:36:02;;;;;;;25.95;13.20;;;;;;;32.47;34.21;100750.28;5113057;27;20130;-69
2022/05/09 09:38:31;;;;;;;18.90;12.20;;;;;;;32.75;33.72;100744.25;5115601;28;20082;-68
2022/05/09 09:41:23;;;;;;;21.25;11.77;;;;;;;32.97;33.60;100750.66;5112019;28;20039;-69
2022/05/09 09:44:15;;;;;;;23.48;11.73;;;;;;;33.12;33.31;100733.13;5110738;27;20517;-69
2022/05/09 09:47:04;;;;;;;19.90;9.95;;;;;;;33.31;33.08;100751.94;5113094;28;20089;-69
2022/05/09 09:49:34;;;;;;;18.85;10.20;;;;;;;33.33;32.95;100741.53;5113272;28;20051;-69
2022/05/09 09:52:00;;;;;;;22.95;11.88;;;;;;;33.57;32.19;100765.66;5113225;28;20122;-69
2022/05/09 09:54:33;;;;;;;19.08;11.05;;;;;;;33.70;32.27;100758.03;5113878;27;20126;-69
2022/05/09 09:57:19;;;;;;;24.50;11.68;;;;;;;33.66;32.14;100737.00;5113850;28;20134;-69
2022/05/09 09:59:47;;;;;;;29.15;11.32;;;;;;;33.55;31.61;100736.34;5111549;28;20126;-70
2022/05/09 10:02:26;;;;;;;15.55;8.55;;;;;;;33.70;32.08;100749.34;5111515;27;20083;-70
2022/05/09 10:05:08;;;;;;;10.25;6.07;;;;;;;33.13;32.49;100750.06;5110424;27;20040;-70
2022/05/09 10:07:35;;;;;;;13.15;5.88;;;;;;;32.53;32.76;100749.41;5108017;28;20131;-70
2022/05/09 10:10:10;;;;;;;11.30;6.65;;;;;;;32.41;33.46;100757.75;5114380;27;20541;-70
2022/05/09 10:12:44;;;;;;;18.77;7.90;;;;;;;32.49;33.23;100757.28;5112703;28;20052;-70
2022/05/09 10:15:28;;;;;;;15.00;7.88;;;;;;;32.42;33.21;100747.88;5111659;28;20134;-69
2022/05/09 10:17:57;;;;;;;12.27;6.82;;;;;;;32.30;33.22;100757.84;5108817;28;20044;-70
2022/05/09 10:20:41;;;;;;;12.75;6.30;;;;;;;32.17;33.31;100762.47;5112524;28;20134;-70
2022/05/09 10:26:17;;;;;;;10.40;6.18;;;;;;;31.59;33.76;100759.09;5112620;28;20075;-70
2022/05/09 10:28:47;;;;;;;10.27;5.75;;;;;;;31.54;34.16;100760.34;5097090;27;20062;-69
2022/05/09 10:31:27;;;;;;;12.93;7.28;;;;;;;31.57;34.16;100750.03;5089098;28;20795;-69
2022/05/09 10:34:00;;;;;;;10.50;6.28;;;;;;;31.41;33.88;100759.19;5109018;28;20047;-74
2022/05/09 10:36:52;;;;;;;15.93;8.57;;;;;;;31.24;34.17;100766.63;5113366;28;20452;-69
2022/05/09 10:39:31;;;;;;;10.32;7.20;;;;;;;31.26;34.38;100749.75;5113512;27;20040;-71
2022/05/09 10:41:59;;;;;;;;;;;;;;;30.92;34.80;100767.56;5112681;28;20071;-70
2022/05/09 10:44:47;;;;;;;9.30;6.15;;;;;;;31.03;34.92;100766.69;5111904;27;19971;-71
2022/05/09 10:47:38;;;;;;;13.40;6.90;;;;;;;31.43;34.83;100773.19;5112546;28;20086;-70
2022/05/09 10:50:15;;;;;;;12.57;7.55;;;;;;;31.63;34.47;100765.69;5111610;27;20305;-71
2022/05/09 10:52:45;;;;;;;14.13;7.25;;;;;;;31.96;34.04;100783.66;5142257;27;20070;-70
2022/05/09 10:55:38;;;;;;;13.65;6.13;;;;;;;32.19;33.73;100762.88;5109817;28;20050;-70
2022/05/09 10:58:14;;;;;;;12.73;7.43;;;;;;;32.54;33.07;100784.91;5110095;28;20134;-71
2022/05/09 11:00:52;;;;;;;12.15;7.85;;;;;;;32.25;33.13;100746.75;5108084;27;20053;-69
2022/05/09 11:03:37;;;;;;;12.57;7.80;;;;;;;32.38;33.18;100753.66;5122268;27;20070;-70
2022/05/09 11:06:23;;;;;;;13.48;7.72;;;;;;;32.60;33.11;100777.44;5112684;27;20382;-69
2022/05/09 11:09:14;;;;;;;11.10;7.53;;;;;;;32.74;32.97;100783.06;5115798;27;20044;-70
2022/05/09 11:12:17;;;;;;;12.45;7.35;;;;;;;32.90;32.77;100790.38;5108492;28;20050;-71
2022/05/09 11:14:47;;;;;;;16.00;8.82;;;;;;;32.73;32.64;100793.00;5108670;27;20062;-70
2022/05/09 11:17:41;;;;;;;12.27;7.65;;;;;;;32.45;33.16;100775.94;5109256;27;20061;-70
2022/05/09 11:20:29;;;;;;;16.70;8.65;;;;;;;32.29;33.25;100785.09;5111083;28;20059;-71
2022/05/09 11:23:09;;;;;;;12.18;8.20;;;;;;;32.59;33.00;100798.94;5105976;28;20383;-71
2022/05/09 11:26:06;;;;;;;13.77;8.77;;;;;;;32.77;32.22;100773.56;5109689;28;20126;-70
2022/05/09 11:28:39;;;;;;;15.55;8.23;;;;;;;32.57;32.52;100784.06;5100623;28;20493;-71
2022/05/09 11:31:21;;;;;;;11.85;8.57;;;;;;;32.60;32.76;100782.41;5109134;27;20070;-71
2022/05/09 11:33:56;;;;;;;15.15;9.32;;;;;;;32.68;33.08;100783.97;5108542;27;20585;-70
2022/05/09 11:36:34;;;;;;;14.43;9.73;;;;;;;32.71;32.68;100768.66;5109463;28;20056;-69
2022/05/09 11:39:24;;;;;;;19.25;10.35;;;;;;;32.65;32.96;100771.22;5107991;27;20047;-70
2022/05/09 11:45:14;;;;;;;17.08;10.02;;;;;;;32.80;32.81;100778.47;5107159;28;20101;-71
2022/05/09 11:47:58;;;;;;;19.10;10.70;;;;;;;32.67;32.74;100759.19;5104580;28;20048;-71